sensor_id;sensor_type;location;lat;lon;timestamp;pressure;altitude;pressure_sealevel;temperature;humidity
10466;BME280;5280;42.600;23.556;2024-02-26T00:01:40;92952.84;;;8.20;100.00
10466;BME280;5280;42.600;23.556;2024-02-26T00:04:06;92937.06;;;8.20;100.00
10466;BME280;5280;42.600;23.556;2024-02-26T00:06:33;92936.09;;;8.21;100.00
10466;BME280;5280;42.600;23.556;2024-02-26T00:09:03;92929.16;;;8.20;100.00
10466;BME280;5280;42.600;23.556;2024-02-26T00:11:31;92947.97;;;8.38;100.00
10466;BME280;5280;42.600;23.556;2024-02-26T00:13:58;92935.00;;;8.23;100.00
10466;BME280;5280;42.600;23.556;2024-02-26T00:16:30;92939.59;;;8.33;100.00
10466;BME280;5280;42.600;23.556;2024-02-26T00:18:57;92944.75;;;8.45;100.00
10466;BME280;5280;42.600;23.556;2024-02-26T00:21:24;92926.06;;;8.37;100.00
10466;BME280;5280;42.600;23.556;2024-02-26T00:23:53;92905.09;;;8.25;100.00
10466;BME280;5280;42.600;23.556;2024-02-26T00:26:20;92876.25;;;8.12;100.00
10466;BME280;5280;42.600;23.556;2024-02-26T00:28:47;92923.22;;;8.40;100.00
10466;BME280;5280;42.600;23.556;2024-02-26T00:31:14;92924.03;;;8.52;100.00
10466;BME280;5280;42.600;23.556;2024-02-26T00:33:43;92890.16;;;8.25;100.00
10466;BME280;5280;42.600;23.556;2024-02-26T00:36:10;92917.81;;;8.53;100.00
10466;BME280;5280;42.600;23.556;2024-02-26T00:38:37;92927.28;;;8.55;100.00
10466;BME280;5280;42.600;23.556;2024-02-26T00:41:05;92914.47;;;8.51;100.00
10466;BME280;5280;42.600;23.556;2024-02-26T00:43:31;92916.97;;;8.52;100.00
10466;BME280;5280;42.600;23.556;2024-02-26T00:45:59;92886.94;;;8.21;100.00
10466;BME280;5280;42.600;23.556;2024-02-26T00:48:26;92900.25;;;8.31;100.00
10466;BME280;5280;42.600;23.556;2024-02-26T00:50:54;92858.31;;;8.17;100.00
10466;BME280;5280;42.600;23.556;2024-02-26T00:53:21;92929.44;;;8.61;100.00
10466;BME280;5280;42.600;23.556;2024-02-26T00:55:50;92900.94;;;8.33;100.00
10466;BME280;5280;42.600;23.556;2024-02-26T00:58:18;92921.16;;;8.55;100.00
10466;BME280;5280;42.600;23.556;2024-02-26T01:00:45;92915.78;;;8.56;100.00
10466;BME280;5280;42.600;23.556;2024-02-26T01:03:12;92906.78;;;8.48;100.00
10466;BME280;5280;42.600;23.556;2024-02-26T01:05:39;92876.19;;;8.36;100.00
10466;BME280;5280;42.600;23.556;2024-02-26T01:08:10;92906.91;;;8.57;100.00
10466;BME280;5280;42.600;23.556;2024-02-26T01:10:39;92900.56;;;8.60;100.00
10466;BME280;5280;42.600;23.556;2024-02-26T01:13:06;92890.50;;;8.54;100.00
10466;BME280;5280;42.600;23.556;2024-02-26T01:15:33;92853.56;;;8.33;100.00
10466;BME280;5280;42.600;23.556;2024-02-26T01:18:00;92866.72;;;8.44;100.00
10466;BME280;5280;42.600;23.556;2024-02-26T01:20:27;92856.91;;;8.35;100.00
10466;BME280;5280;42.600;23.556;2024-02-26T01:22:54;92778.19;;;7.88;100.00
10466;BME280;5280;42.600;23.556;2024-02-26T01:25:25;92897.56;;;8.64;100.00
10466;BME280;5280;42.600;23.556;2024-02-26T01:27:55;92842.31;;;8.31;100.00
10466;BME280;5280;42.600;23.556;2024-02-26T01:30:22;92887.16;;;8.63;100.00
10466;BME280;5280;42.600;23.556;2024-02-26T01:32:49;92884.19;;;8.56;100.00
10466;BME280;5280;42.600;23.556;2024-02-26T01:35:16;92853.19;;;8.38;100.00
10466;BME280;5280;42.600;23.556;2024-02-26T01:37:44;92841.97;;;8.36;100.00
10466;BME280;5280;42.600;23.556;2024-02-26T01:40:12;92880.94;;;8.64;100.00
10466;BME280;5280;42.600;23.556;2024-02-26T01:42:45;92866.44;;;8.58;100.00
10466;BME280;5280;42.600;23.556;2024-02-26T01:45:14;92876.75;;;8.61;100.00
10466;BME280;5280;42.600;23.556;2024-02-26T01:47:50;92870.19;;;8.56;100.00
10466;BME280;5280;42.600;23.556;2024-02-26T01:50:18;92888.47;;;8.57;100.00
10466;BME280;5280;42.600;23.556;2024-02-26T01:52:45;92884.41;;;8.64;100.00
10466;BME280;5280;42.600;23.556;2024-02-26T01:55:14;92887.03;;;8.64;100.00
10466;BME280;5280;42.600;23.556;2024-02-26T01:57:40;92891.72;;;8.61;100.00
10466;BME280;5280;42.600;23.556;2024-02-26T02:00:11;92846.59;;;8.43;100.00
10466;BME280;5280;42.600;23.556;2024-02-26T02:02:39;92871.03;;;8.56;100.00
10466;BME280;5280;42.600;23.556;2024-02-26T02:05:08;92876.38;;;8.66;100.00
10466;BME280;5280;42.600;23.556;2024-02-26T02:07:36;92876.00;;;8.71;100.00
10466;BME280;5280;42.600;23.556;2024-02-26T02:10:03;92831.91;;;8.41;100.00
10466;BME280;5280;42.600;23.556;2024-02-26T02:12:32;92872.53;;;8.70;100.00
10466;BME280;5280;42.600;23.556;2024-02-26T02:15:00;92875.75;;;8.74;100.00
10466;BME280;5280;42.600;23.556;2024-02-26T02:17:30;92863.69;;;8.60;100.00
10466;BME280;5280;42.600;23.556;2024-02-26T02:20:00;92841.56;;;8.51;100.00
10466;BME280;5280;42.600;23.556;2024-02-26T02:22:29;92814.91;;;8.34;100.00
10466;BME280;5280;42.600;23.556;2024-02-26T02:24:57;92870.97;;;8.68;100.00
10466;BME280;5280;42.600;23.556;2024-02-26T02:27:28;92878.50;;;8.72;100.00
10466;BME280;5280;42.600;23.556;2024-02-26T02:29:56;92882.97;;;8.72;100.00
10466;BME280;5280;42.600;23.556;2024-02-26T02:32:27;92874.69;;;8.65;100.00
10466;BME280;5280;42.600;23.556;2024-02-26T02:34:56;92884.63;;;8.73;100.00
10466;BME280;5280;42.600;23.556;2024-02-26T02:37:24;92859.88;;;8.53;100.00
10466;BME280;5280;42.600;23.556;2024-02-26T02:39:57;92880.66;;;8.67;100.00
10466;BME280;5280;42.600;23.556;2024-02-26T02:42:24;92883.91;;;8.71;100.00
10466;BME280;5280;42.600;23.556;2024-02-26T02:44:51;92881.66;;;8.66;100.00
10466;BME280;5280;42.600;23.556;2024-02-26T02:47:18;92875.53;;;8.66;100.00
10466;BME280;5280;42.600;23.556;2024-02-26T02:49:45;92893.25;;;8.75;100.00
10466;BME280;5280;42.600;23.556;2024-02-26T02:52:12;92894.94;;;8.64;100.00
10466;BME280;5280;42.600;23.556;2024-02-26T02:54:39;92818.50;;;8.33;100.00
10466;BME280;5280;42.600;23.556;2024-02-26T02:57:09;92844.91;;;8.42;100.00
10466;BME280;5280;42.600;23.556;2024-02-26T02:59:36;92839.53;;;8.44;100.00
10466;BME280;5280;42.600;23.556;2024-02-26T03:02:04;92870.50;;;8.62;100.00
10466;BME280;5280;42.600;23.556;2024-02-26T03:04:34;92881.13;;;8.72;100.00
10466;BME280;5280;42.600;23.556;2024-02-26T03:07:01;92873.88;;;8.64;100.00
10466;BME280;5280;42.600;23.556;2024-02-26T03:09:28;92871.50;;;8.61;100.00
10466;BME280;5280;42.600;23.556;2024-02-26T03:12:01;92791.94;;;8.13;100.00
10466;BME280;5280;42.600;23.556;2024-02-26T03:14:30;92885.00;;;8.57;100.00
10466;BME280;5280;42.600;23.556;2024-02-26T03:16:57;92879.72;;;8.68;100.00
10466;BME280;5280;42.600;23.556;2024-02-26T03:19:24;92897.09;;;8.71;100.00
10466;BME280;5280;42.600;23.556;2024-02-26T03:21:51;92890.50;;;8.65;100.00
10466;BME280;5280;42.600;23.556;2024-02-26T03:24:20;92882.13;;;8.71;100.00
10466;BME280;5280;42.600;23.556;2024-02-26T03:26:47;92879.59;;;8.70;100.00
10466;BME280;5280;42.600;23.556;2024-02-26T03:29:14;92883.06;;;8.70;100.00
10466;BME280;5280;42.600;23.556;2024-02-26T03:31:43;92889.19;;;8.71;100.00
10466;BME280;5280;42.600;23.556;2024-02-26T03:34:10;92878.88;;;8.68;100.00
10466;BME280;5280;42.600;23.556;2024-02-26T03:36:39;92882.97;;;8.72;100.00
10466;BME280;5280;42.600;23.556;2024-02-26T03:39:09;92795.03;;;8.18;100.00
10466;BME280;5280;42.600;23.556;2024-02-26T03:41:36;92886.56;;;8.71;100.00
10466;BME280;5280;42.600;23.556;2024-02-26T03:44:03;92817.78;;;8.31;100.00
10466;BME280;5280;42.600;23.556;2024-02-26T03:46:30;92829.84;;;8.33;100.00
10466;BME280;5280;42.600;23.556;2024-02-26T03:48:58;92875.53;;;8.66;100.00
10466;BME280;5280;42.600;23.556;2024-02-26T03:51:26;92874.13;;;8.61;100.00
10466;BME280;5280;42.600;23.556;2024-02-26T03:53:56;92869.56;;;8.63;100.00
10466;BME280;5280;42.600;23.556;2024-02-26T03:56:24;92880.66;;;8.67;100.00
10466;BME280;5280;42.600;23.556;2024-02-26T03:58:50;92869.44;;;8.65;100.00
10466;BME280;5280;42.600;23.556;2024-02-26T04:01:17;92866.09;;;8.52;100.00
10466;BME280;5280;42.600;23.556;2024-02-26T04:03:47;92873.41;;;8.59;100.00
10466;BME280;5280;42.600;23.556;2024-02-26T04:06:16;92812.25;;;8.22;100.00
10466;BME280;5280;42.600;23.556;2024-02-26T04:08:47;92866.94;;;8.52;100.00
10466;BME280;5280;42.600;23.556;2024-02-26T04:11:15;92852.13;;;8.40;100.00
10466;BME280;5280;42.600;23.556;2024-02-26T04:13:43;92875.66;;;8.53;100.00
10466;BME280;5280;42.600;23.556;2024-02-26T04:16:11;92852.34;;;8.37;100.00
10466;BME280;5280;42.600;23.556;2024-02-26T04:18:39;92826.53;;;8.31;100.00
10466;BME280;5280;42.600;23.556;2024-02-26T04:21:09;92839.81;;;8.30;100.00
10466;BME280;5280;42.600;23.556;2024-02-26T04:23:39;92847.06;;;8.48;100.00
10466;BME280;5280;42.600;23.556;2024-02-26T04:26:06;92855.44;;;8.53;100.00
10466;BME280;5280;42.600;23.556;2024-02-26T04:28:33;92800.19;;;8.20;100.00
10466;BME280;5280;42.600;23.556;2024-02-26T04:31:01;92856.16;;;8.55;100.00
10466;BME280;5280;42.600;23.556;2024-02-26T04:33:28;92860.47;;;8.56;100.00
10466;BME280;5280;42.600;23.556;2024-02-26T04:35:55;92846.59;;;8.43;100.00
10466;BME280;5280;42.600;23.556;2024-02-26T04:38:22;92823.91;;;8.31;100.00
10466;BME280;5280;42.600;23.556;2024-02-26T04:40:51;92751.88;;;7.88;100.00
10466;BME280;5280;42.600;23.556;2024-02-26T04:43:18;92853.28;;;8.47;100.00
10466;BME280;5280;42.600;23.556;2024-02-26T04:45:45;92861.91;;;8.49;100.00
10466;BME280;5280;42.600;23.556;2024-02-26T04:48:12;92869.09;;;8.47;100.00
10466;BME280;5280;42.600;23.556;2024-02-26T04:50:39;92840.66;;;8.30;100.00
10466;BME280;5280;42.600;23.556;2024-02-26T04:53:07;92876.28;;;8.45;100.00
10466;BME280;5280;42.600;23.556;2024-02-26T04:55:33;92872.22;;;8.41;100.00
10466;BME280;5280;42.600;23.556;2024-02-26T04:58:05;92878.34;;;8.42;100.00
10466;BME280;5280;42.600;23.556;2024-02-26T05:00:32;92870.78;;;8.37;100.00
10466;BME280;5280;42.600;23.556;2024-02-26T05:02:59;92877.88;;;8.37;100.00
10466;BME280;5280;42.600;23.556;2024-02-26T05:05:26;92886.25;;;8.31;100.00
10466;BME280;5280;42.600;23.556;2024-02-26T05:07:54;92817.28;;;7.92;100.00
10466;BME280;5280;42.600;23.556;2024-02-26T05:10:21;92817.66;;;7.88;100.00
10466;BME280;5280;42.600;23.556;2024-02-26T05:12:48;92874.00;;;8.18;100.00
10466;BME280;5280;42.600;23.556;2024-02-26T05:15:18;92860.59;;;8.10;100.00
10466;BME280;5280;42.600;23.556;2024-02-26T05:17:45;92862.50;;;8.08;100.00
10466;BME280;5280;42.600;23.556;2024-02-26T05:20:13;92885.34;;;8.19;100.00
10466;BME280;5280;42.600;23.556;2024-02-26T05:22:40;92851.16;;;7.97;100.00
10466;BME280;5280;42.600;23.556;2024-02-26T05:25:10;92854.75;;;7.96;100.00
10466;BME280;5280;42.600;23.556;2024-02-26T05:27:38;92832.38;;;7.79;100.00
10466;BME280;5280;42.600;23.556;2024-02-26T05:30:07;92887.25;;;8.17;100.00
10466;BME280;5280;42.600;23.556;2024-02-26T05:32:35;92876.16;;;7.91;100.00
10466;BME280;5280;42.600;23.556;2024-02-26T05:35:03;92891.13;;;8.02;100.00
10466;BME280;5280;42.600;23.556;2024-02-26T05:37:31;92897.44;;;8.10;100.00
10466;BME280;5280;42.600;23.556;2024-02-26T05:39:59;92900.19;;;8.09;100.00
10466;BME280;5280;42.600;23.556;2024-02-26T05:42:26;92903.41;;;8.12;100.00
10466;BME280;5280;42.600;23.556;2024-02-26T05:44:53;92859.03;;;7.86;100.00
10466;BME280;5280;42.600;23.556;2024-02-26T05:47:26;92909.50;;;8.13;100.00
10466;BME280;5280;42.600;23.556;2024-02-26T05:49:54;92924.34;;;8.14;100.00
10466;BME280;5280;42.600;23.556;2024-02-26T05:52:24;92913.72;;;8.15;100.00
10466;BME280;5280;42.600;23.556;2024-02-26T05:54:51;92901.97;;;8.08;100.00
10466;BME280;5280;42.600;23.556;2024-02-26T05:57:18;92922.22;;;8.19;100.00
10466;BME280;5280;42.600;23.556;2024-02-26T05:59:45;92914.19;;;8.20;100.00
10466;BME280;5280;42.600;23.556;2024-02-26T06:02:12;92908.56;;;8.14;100.00
10466;BME280;5280;42.600;23.556;2024-02-26T06:04:39;92915.19;;;8.31;100.00
10466;BME280;5280;42.600;23.556;2024-02-26T06:07:08;92917.91;;;8.29;100.00
10466;BME280;5280;42.600;23.556;2024-02-26T06:09:38;92914.34;;;8.30;100.00
10466;BME280;5280;42.600;23.556;2024-02-26T06:12:05;92916.50;;;8.36;100.00
10466;BME280;5280;42.600;23.556;2024-02-26T06:14:33;92865.03;;;8.10;100.00
10466;BME280;5280;42.600;23.556;2024-02-26T06:17:00;92912.69;;;8.51;100.00
10466;BME280;5280;42.600;23.556;2024-02-26T06:19:27;92922.13;;;8.65;100.00
10466;BME280;5280;42.600;23.556;2024-02-26T06:21:56;92913.84;;;8.58;100.00
10466;BME280;5280;42.600;23.556;2024-02-26T06:24:24;92882.97;;;8.49;100.00
10466;BME280;5280;42.600;23.556;2024-02-26T06:26:52;92867.34;;;8.37;100.00
10466;BME280;5280;42.600;23.556;2024-02-26T06:29:19;92922.47;;;8.60;100.00
10466;BME280;5280;42.600;23.556;2024-02-26T06:31:47;92885.84;;;8.57;100.00
10466;BME280;5280;42.600;23.556;2024-02-26T06:34:19;92871.03;;;8.45;100.00
10466;BME280;5280;42.600;23.556;2024-02-26T06:36:46;92905.84;;;8.60;100.00
10466;BME280;5280;42.600;23.556;2024-02-26T06:39:13;92946.03;;;8.84;100.00
10466;BME280;5280;42.600;23.556;2024-02-26T06:41:43;92909.78;;;8.66;100.00
10466;BME280;5280;42.600;23.556;2024-02-26T06:44:12;92916.31;;;8.82;100.00
10466;BME280;5280;42.600;23.556;2024-02-26T06:46:39;92929.13;;;8.98;100.00
10466;BME280;5280;42.600;23.556;2024-02-26T06:49:06;92928.72;;;9.14;100.00
10466;BME280;5280;42.600;23.556;2024-02-26T06:51:33;92928.22;;;9.20;100.00
10466;BME280;5280;42.600;23.556;2024-02-26T06:54:01;92911.94;;;9.15;100.00
10466;BME280;5280;42.600;23.556;2024-02-26T06:56:31;92927.34;;;9.30;100.00
10466;BME280;5280;42.600;23.556;2024-02-26T06:59:00;92930.53;;;9.45;100.00
10466;BME280;5280;42.600;23.556;2024-02-26T07:01:27;92918.88;;;9.47;100.00
10466;BME280;5280;42.600;23.556;2024-02-26T07:03:59;92934.41;;;9.62;100.00
10466;BME280;5280;42.600;23.556;2024-02-26T07:06:27;92924.00;;;9.60;100.00
10466;BME280;5280;42.600;23.556;2024-02-26T07:08:54;92933.78;;;9.69;100.00
10466;BME280;5280;42.600;23.556;2024-02-26T07:11:27;92931.97;;;9.70;100.00
10466;BME280;5280;42.600;23.556;2024-02-26T07:13:54;92934.69;;;9.79;100.00
10466;BME280;5280;42.600;23.556;2024-02-26T07:16:22;92936.69;;;9.87;100.00
10466;BME280;5280;42.600;23.556;2024-02-26T07:18:49;92935.78;;;9.77;100.00
10466;BME280;5280;42.600;23.556;2024-02-26T07:21:17;92895.38;;;9.56;100.00
10466;BME280;5280;42.600;23.556;2024-02-26T07:23:44;92953.97;;;9.91;100.00
10466;BME280;5280;42.600;23.556;2024-02-26T07:26:11;92952.47;;;9.98;100.00
10466;BME280;5280;42.600;23.556;2024-02-26T07:28:38;92944.94;;;9.93;100.00
10466;BME280;5280;42.600;23.556;2024-02-26T07:31:05;92934.31;;;10.05;100.00
10466;BME280;5280;42.600;23.556;2024-02-26T07:33:33;92945.88;;;9.92;100.00
10466;BME280;5280;42.600;23.556;2024-02-26T07:36:00;92927.75;;;9.99;100.00
10466;BME280;5280;42.600;23.556;2024-02-26T07:38:27;92927.28;;;9.94;100.00
10466;BME280;5280;42.600;23.556;2024-02-26T07:40:55;92947.44;;;9.95;100.00
10466;BME280;5280;42.600;23.556;2024-02-26T07:43:22;92948.34;;;10.05;100.00
10466;BME280;5280;42.600;23.556;2024-02-26T07:46:04;92945.72;;;10.05;100.00
10466;BME280;5280;42.600;23.556;2024-02-26T07:48:35;92934.25;;;9.95;100.00
10466;BME280;5280;42.600;23.556;2024-02-26T07:51:03;92926.97;;;10.08;100.00
10466;BME280;5280;42.600;23.556;2024-02-26T07:53:30;92934.13;;;10.17;100.00
10466;BME280;5280;42.600;23.556;2024-02-26T07:55:58;92941.53;;;10.23;100.00
10466;BME280;5280;42.600;23.556;2024-02-26T07:58:26;92874.44;;;9.84;100.00
10466;BME280;5280;42.600;23.556;2024-02-26T08:00:53;92939.47;;;10.27;100.00
10466;BME280;5280;42.600;23.556;2024-02-26T08:03:20;92943.38;;;10.32;100.00
10466;BME280;5280;42.600;23.556;2024-02-26T08:05:48;92932.31;;;10.39;100.00
10466;BME280;5280;42.600;23.556;2024-02-26T08:08:15;92941.25;;;10.47;100.00
10466;BME280;5280;42.600;23.556;2024-02-26T08:10:42;92943.31;;;10.44;100.00
10466;BME280;5280;42.600;23.556;2024-02-26T08:13:10;92906.13;;;10.26;100.00
10466;BME280;5280;42.600;23.556;2024-02-26T08:15:37;92922.50;;;10.50;100.00
10466;BME280;5280;42.600;23.556;2024-02-26T08:18:05;92939.28;;;10.70;100.00
10466;BME280;5280;42.600;23.556;2024-02-26T08:20:33;92929.94;;;10.66;100.00
10466;BME280;5280;42.600;23.556;2024-02-26T08:23:01;92936.78;;;10.78;100.00
10466;BME280;5280;42.600;23.556;2024-02-26T08:25:28;92921.63;;;10.70;100.00
10466;BME280;5280;42.600;23.556;2024-02-26T08:27:55;92929.31;;;10.93;100.00
10466;BME280;5280;42.600;23.556;2024-02-26T08:30:22;92923.38;;;11.00;100.00
10466;BME280;5280;42.600;23.556;2024-02-26T08:32:50;92929.09;;;11.05;100.00
10466;BME280;5280;42.600;23.556;2024-02-26T08:35:19;92932.00;;;11.12;100.00
10466;BME280;5280;42.600;23.556;2024-02-26T08:37:47;92920.03;;;11.08;100.00
10466;BME280;5280;42.600;23.556;2024-02-26T08:40:16;92919.47;;;11.04;100.00
10466;BME280;5280;42.600;23.556;2024-02-26T08:42:45;92863.66;;;10.88;100.00
10466;BME280;5280;42.600;23.556;2024-02-26T08:45:12;92925.53;;;11.26;100.00
10466;BME280;5280;42.600;23.556;2024-02-26T08:47:39;92934.41;;;11.15;100.00
10466;BME280;5280;42.600;23.556;2024-02-26T08:50:07;92921.19;;;11.25;100.00
10466;BME280;5280;42.600;23.556;2024-02-26T08:52:35;92921.03;;;11.26;100.00
10466;BME280;5280;42.600;23.556;2024-02-26T08:55:02;92912.69;;;11.21;100.00
10466;BME280;5280;42.600;23.556;2024-02-26T08:57:31;92938.63;;;11.46;100.00
10466;BME280;5280;42.600;23.556;2024-02-26T08:59:59;92936.97;;;11.55;100.00
10466;BME280;5280;42.600;23.556;2024-02-26T09:02:27;92941.84;;;11.69;100.00
10466;BME280;5280;42.600;23.556;2024-02-26T09:04:54;92938.09;;;11.81;100.00
10466;BME280;5280;42.600;23.556;2024-02-26T09:07:21;92925.69;;;11.91;100.00
10466;BME280;5280;42.600;23.556;2024-02-26T09:09:48;92934.22;;;12.04;100.00
10466;BME280;5280;42.600;23.556;2024-02-26T09:12:15;92924.69;;;12.12;100.00
10466;BME280;5280;42.600;23.556;2024-02-26T09:14:43;92918.84;;;12.18;100.00
10466;BME280;5280;42.600;23.556;2024-02-26T09:17:10;92917.88;;;12.19;100.00
10466;BME280;5280;42.600;23.556;2024-02-26T09:19:37;92927.44;;;12.39;100.00
10466;BME280;5280;42.600;23.556;2024-02-26T09:22:04;92922.41;;;12.36;100.00
10466;BME280;5280;42.600;23.556;2024-02-26T09:24:32;92928.00;;;12.33;100.00
10466;BME280;5280;42.600;23.556;2024-02-26T09:26:59;92870.06;;;12.01;100.00
10466;BME280;5280;42.600;23.556;2024-02-26T09:29:26;92914.47;;;12.36;100.00
10466;BME280;5280;42.600;23.556;2024-02-26T09:31:55;92850.94;;;12.17;100.00
10466;BME280;5280;42.600;23.556;2024-02-26T09:34:21;92876.00;;;12.32;100.00
10466;BME280;5280;42.600;23.556;2024-02-26T09:36:49;92925.69;;;12.67;100.00
10466;BME280;5280;42.600;23.556;2024-02-26T09:39:16;92922.88;;;12.68;100.00
10466;BME280;5280;42.600;23.556;2024-02-26T09:41:47;92898.31;;;12.66;100.00
10466;BME280;5280;42.600;23.556;2024-02-26T09:44:17;92893.41;;;12.71;100.00
10466;BME280;5280;42.600;23.556;2024-02-26T09:46:45;92916.31;;;12.72;100.00
10466;BME280;5280;42.600;23.556;2024-02-26T09:49:15;92914.63;;;12.71;100.00
10466;BME280;5280;42.600;23.556;2024-02-26T09:51:42;92916.97;;;12.84;100.00
10466;BME280;5280;42.600;23.556;2024-02-26T09:54:10;92918.53;;;12.77;100.00
10466;BME280;5280;42.600;23.556;2024-02-26T09:56:39;92904.72;;;12.73;100.00
10466;BME280;5280;42.600;23.556;2024-02-26T09:59:10;92914.22;;;12.66;100.00
10466;BME280;5280;42.600;23.556;2024-02-26T10:01:42;92903.81;;;12.65;100.00
10466;BME280;5280;42.600;23.556;2024-02-26T10:04:10;92905.44;;;12.66;100.00
10466;BME280;5280;42.600;23.556;2024-02-26T10:06:39;92915.44;;;12.81;100.00
10466;BME280;5280;42.600;23.556;2024-02-26T10:09:09;92915.16;;;12.84;100.00
10466;BME280;5280;42.600;23.556;2024-02-26T10:11:41;92908.63;;;12.79;100.00
10466;BME280;5280;42.600;23.556;2024-02-26T10:14:09;92885.38;;;12.63;100.00
10466;BME280;5280;42.600;23.556;2024-02-26T10:16:37;92894.78;;;12.75;100.00
10466;BME280;5280;42.600;23.556;2024-02-26T10:19:05;92914.50;;;12.73;100.00
10466;BME280;5280;42.600;23.556;2024-02-26T10:21:31;92894.78;;;12.75;100.00
10466;BME280;5280;42.600;23.556;2024-02-26T10:24:00;92904.59;;;12.75;100.00
10466;BME280;5280;42.600;23.556;2024-02-26T10:26:27;92873.66;;;12.56;100.00
10466;BME280;5280;42.600;23.556;2024-02-26T10:28:59;92894.38;;;12.80;100.00
10466;BME280;5280;42.600;23.556;2024-02-26T10:31:26;92892.25;;;12.83;100.00
10466;BME280;5280;42.600;23.556;2024-02-26T10:33:55;92875.84;;;12.70;100.00
10466;BME280;5280;42.600;23.556;2024-02-26T10:36:22;92874.81;;;12.81;100.00
10466;BME280;5280;42.600;23.556;2024-02-26T10:38:49;92880.56;;;12.76;100.00
10466;BME280;5280;42.600;23.556;2024-02-26T10:41:18;92888.34;;;12.87;100.00
10466;BME280;5280;42.600;23.556;2024-02-26T10:43:45;92842.59;;;12.76;100.00
10466;BME280;5280;42.600;23.556;2024-02-26T10:46:14;92868.66;;;12.90;100.00
10466;BME280;5280;42.600;23.556;2024-02-26T10:48:49;92880.31;;;12.97;100.00
10466;BME280;5280;42.600;23.556;2024-02-26T10:51:18;92870.06;;;13.12;100.00
10466;BME280;5280;42.600;23.556;2024-02-26T10:53:48;92877.63;;;13.07;100.00
10466;BME280;5280;42.600;23.556;2024-02-26T10:56:21;92872.03;;;13.10;100.00
10466;BME280;5280;42.600;23.556;2024-02-26T10:58:50;92865.16;;;13.17;100.00
10466;BME280;5280;42.600;23.556;2024-02-26T11:01:20;92867.28;;;13.13;100.00
10466;BME280;5280;42.600;23.556;2024-02-26T11:03:48;92867.91;;;13.25;100.00
10466;BME280;5280;42.600;23.556;2024-02-26T11:06:17;92859.72;;;13.36;100.00
10466;BME280;5280;42.600;23.556;2024-02-26T11:08:47;92858.91;;;13.53;100.00
10466;BME280;5280;42.600;23.556;2024-02-26T11:11:14;92868.28;;;13.65;100.00
10466;BME280;5280;42.600;23.556;2024-02-26T11:13:46;92811.81;;;13.38;100.00
10466;BME280;5280;42.600;23.556;2024-02-26T11:16:16;92855.72;;;13.67;100.00
10466;BME280;5280;42.600;23.556;2024-02-26T11:18:46;92860.41;;;13.73;100.00
10466;BME280;5280;42.600;23.556;2024-02-26T11:21:16;92847.50;;;13.78;100.00
10466;BME280;5280;42.600;23.556;2024-02-26T11:23:53;92860.19;;;13.85;100.00
10466;BME280;5280;42.600;23.556;2024-02-26T11:26:22;92842.81;;;13.72;100.00
10466;BME280;5280;42.600;23.556;2024-02-26T11:28:52;92875.28;;;13.66;100.00
10466;BME280;5280;42.600;23.556;2024-02-26T11:31:20;92815.94;;;13.40;100.00
10466;BME280;5280;42.600;23.556;2024-02-26T11:33:53;92840.22;;;13.63;100.00
10466;BME280;5280;42.600;23.556;2024-02-26T11:36:20;92826.50;;;13.67;100.00
10466;BME280;5280;42.600;23.556;2024-02-26T11:38:47;92864.03;;;13.72;100.00
10466;BME280;5280;42.600;23.556;2024-02-26T11:41:17;92853.09;;;13.75;100.00
10466;BME280;5280;42.600;23.556;2024-02-26T11:43:53;92853.09;;;13.75;100.00
10466;BME280;5280;42.600;23.556;2024-02-26T11:46:26;92854.19;;;13.83;100.00
10466;BME280;5280;42.600;23.556;2024-02-26T11:48:58;92847.59;;;13.95;100.00
10466;BME280;5280;42.600;23.556;2024-02-26T11:51:26;92848.69;;;14.02;100.00
10466;BME280;5280;42.600;23.556;2024-02-26T11:53:54;92843.34;;;14.02;100.00
10466;BME280;5280;42.600;23.556;2024-02-26T11:56:23;92839.72;;;14.03;100.00
10466;BME280;5280;42.600;23.556;2024-02-26T11:59:04;92845.88;;;14.03;100.00
10466;BME280;5280;42.600;23.556;2024-02-26T12:01:42;92835.38;;;14.02;100.00
10466;BME280;5280;42.600;23.556;2024-02-26T12:04:15;92840.09;;;14.08;100.00
10466;BME280;5280;42.600;23.556;2024-02-26T12:06:46;92820.25;;;13.94;100.00
10466;BME280;5280;42.600;23.556;2024-02-26T12:09:13;92835.06;;;14.05;100.00
10466;BME280;5280;42.600;23.556;2024-02-26T12:11:41;92825.47;;;14.04;100.00
10466;BME280;5280;42.600;23.556;2024-02-26T12:14:10;92829.81;;;14.13;100.00
10466;BME280;5280;42.600;23.556;2024-02-26T12:16:38;92825.03;;;14.16;100.00
10466;BME280;5280;42.600;23.556;2024-02-26T12:19:06;92820.59;;;14.25;100.00
10466;BME280;5280;42.600;23.556;2024-02-26T12:21:35;92839.19;;;14.25;100.00
10466;BME280;5280;42.600;23.556;2024-02-26T12:24:13;92839.50;;;14.22;100.00
10466;BME280;5280;42.600;23.556;2024-02-26T12:26:41;92833.31;;;14.13;100.00
10466;BME280;5280;42.600;23.556;2024-02-26T12:29:09;92842.19;;;14.22;100.00
10466;BME280;5280;42.600;23.556;2024-02-26T12:31:37;92841.44;;;14.12;100.00
10466;BME280;5280;42.600;23.556;2024-02-26T12:34:06;92831.78;;;14.11;100.00
10466;BME280;5280;42.600;23.556;2024-02-26T12:36:35;92822.16;;;14.10;100.00
10466;BME280;5280;42.600;23.556;2024-02-26T12:39:02;92841.84;;;14.25;100.00
10466;BME280;5280;42.600;23.556;2024-02-26T12:41:31;92816.59;;;14.21;100.00
10466;BME280;5280;42.600;23.556;2024-02-26T12:44:02;92837.91;;;14.29;100.00
10466;BME280;5280;42.600;23.556;2024-02-26T12:46:30;92841.31;;;14.39;100.00
10466;BME280;5280;42.600;23.556;2024-02-26T12:48:58;92828.19;;;14.38;100.00
10466;BME280;5280;42.600;23.556;2024-02-26T12:51:25;92838.50;;;14.41;100.00
10466;BME280;5280;42.600;23.556;2024-02-26T12:53:53;92830.69;;;14.39;100.00
10466;BME280;5280;42.600;23.556;2024-02-26T12:56:23;92822.47;;;14.33;100.00
10466;BME280;5280;42.600;23.556;2024-02-26T12:58:52;92830.41;;;14.50;100.00
10466;BME280;5280;42.600;23.556;2024-02-26T13:01:23;92835.56;;;14.52;100.00